Time;durP1;ratioP1;P1;durP2;ratioP2;P2;SDS_P1;SDS_P2;PMS_P1;PMS_P2;Temp;Humidity;BMP_temperature;BMP_pressure;BME280_temperature;BME280_humidity;BME280_pressure;Samples;Min_cycle;Max_cycle;Signal;HPM_P1;HPM_P2
2024/04/07 00:00:22;;;;;;;2.90;1.77;;;20.00;79.10;;;;;;4193163;27;20849;-40
2024/04/07 00:03:02;;;;;;;4.05;1.80;;;19.90;79.00;;;;;;4188634;28;20407;-40
2024/04/07 00:05:42;;;;;;;4.57;2.22;;;19.90;79.20;;;;;;4188954;28;20059;-45
2024/04/07 00:08:23;;;;;;;5.00;1.92;;;19.90;79.20;;;;;;4171855;28;20148;-45
2024/04/07 00:11:04;;;;;;;2.47;1.38;;;19.90;79.30;;;;;;4188576;28;20079;-45
2024/04/07 00:13:43;;;;;;;2.88;1.70;;;19.90;79.40;;;;;;4188296;28;20059;-45
2024/04/07 00:16:23;;;;;;;3.90;1.92;;;19.90;79.40;;;;;;4188712;28;20048;-46
2024/04/07 00:19:03;;;;;;;5.55;2.13;;;19.90;79.30;;;;;;4204395;28;20055;-47
2024/04/07 00:21:42;;;;;;;4.47;1.88;;;19.90;79.40;;;;;;4205332;28;20059;-48
2024/04/07 00:24:23;;;;;;;4.82;1.90;;;19.90;79.40;;;;;;4205753;28;20182;-48
2024/04/07 00:27:03;;;;;;;7.35;1.98;;;19.90;79.50;;;;;;4205252;28;20501;-46
2024/04/07 00:29:44;;;;;;;3.00;1.30;;;19.90;79.80;;;;;;4203995;28;20051;-46
2024/04/07 00:32:25;;;;;;;2.13;1.77;;;19.90;79.60;;;;;;4194046;28;20086;-44
2024/04/07 00:35:06;;;;;;;8.10;2.03;;;19.90;79.90;;;;;;4191091;28;20054;-46
2024/04/07 00:37:45;;;;;;;6.10;1.77;;;19.90;79.90;;;;;;4176939;28;20055;-45
2024/04/07 00:40:26;;;;;;;2.95;2.05;;;19.90;80.00;;;;;;4176477;28;20052;-46
2024/04/07 00:43:05;;;;;;;;;;;19.90;80.00;;;;;;4188917;28;20097;-44
2024/04/07 00:45:45;;;;;;;1.85;1.65;;;19.90;80.00;;;;;;4188318;28;20398;-46
2024/04/07 00:48:24;;;;;;;6.03;1.80;;;19.90;81.10;;;;;;4205065;28;20066;-46
2024/04/07 00:51:05;;;;;;;3.42;1.58;;;19.80;80.60;;;;;;4203579;28;20058;-45
2024/04/07 00:53:44;;;;;;;4.68;2.05;;;19.90;80.60;;;;;;4205001;28;20090;-45
2024/04/07 00:56:26;;;;;;;5.05;1.50;;;19.80;80.60;;;;;;4191692;28;20055;-46
2024/04/07 00:59:06;;;;;;;;;;;19.80;80.50;;;;;;4204646;28;20047;-45
2024/04/07 01:01:46;;;;;;;2.55;1.58;;;19.80;80.50;;;;;;4202443;28;20394;-46
2024/04/07 01:04:25;;;;;;;5.03;1.80;;;19.80;81.60;;;;;;4204708;28;20113;-45
2024/04/07 01:07:05;;;;;;;5.50;1.90;;;19.80;80.80;;;;;;4198263;28;20058;-45
2024/04/07 01:09:44;;;;;;;5.13;1.83;;;19.80;80.60;;;;;;4187402;28;20068;-46
2024/04/07 01:12:26;;;;;;;3.33;1.88;;;19.80;80.80;;;;;;4187046;28;20051;-45
2024/04/07 01:15:06;;;;;;;;;;;19.80;80.60;;;;;;4188258;28;20082;-46
2024/04/07 01:17:46;;;;;;;6.70;2.17;;;19.80;80.60;;;;;;4187786;28;19931;-48
2024/04/07 01:20:25;;;;;;;3.40;1.88;;;19.80;81.80;;;;;;4192154;27;20055;-45
2024/04/07 01:23:05;;;;;;;4.47;2.00;;;19.80;81.20;;;;;;4202776;28;20116;-46
2024/04/07 01:25:45;;;;;;;3.15;1.40;;;19.80;81.00;;;;;;4204376;28;20059;-41
2024/04/07 01:28:25;;;;;;;4.00;1.90;;;19.80;80.80;;;;;;4203796;28;20105;-40
2024/04/07 01:31:06;;;;;;;4.10;1.77;;;19.80;80.90;;;;;;4194011;28;20066;-40
2024/04/07 01:33:46;;;;;;;9.93;2.15;;;19.70;81.20;;;;;;4175488;28;20055;-40
2024/04/07 01:36:25;;;;;;;3.25;1.50;;;19.80;81.40;;;;;;4187133;28;20048;-40
2024/04/07 01:39:07;;;;;;;9.48;1.83;;;19.80;81.30;;;;;;4194317;27;20128;-40
2024/04/07 01:41:48;;;;;;;4.05;1.25;;;19.80;81.50;;;;;;4202590;27;20101;-40
2024/04/07 01:44:28;;;;;;;5.13;1.00;;;19.80;81.60;;;;;;4204377;27;20047;-41
2024/04/07 01:47:06;;;;;;;2.60;1.60;;;19.80;81.60;;;;;;4203992;28;20497;-41
2024/04/07 01:49:48;;;;;;;2.88;1.33;;;19.70;81.20;;;;;;4191972;28;20529;-41
2024/04/07 01:52:27;;;;;;;3.33;1.08;;;19.70;81.30;;;;;;4186695;28;20103;-41
2024/04/07 01:55:08;;;;;;;2.58;1.27;;;19.70;81.60;;;;;;4202267;28;20051;-41
2024/04/07 01:57:49;;;;;;;;;;;19.70;81.40;;;;;;4204006;28;20101;-41
2024/04/07 02:00:29;;;;;;;2.53;1.27;;;19.70;81.30;;;;;;4196826;28;19928;-40
2024/04/07 02:03:08;;;;;;;3.33;1.30;;;19.70;82.20;;;;;;4186676;28;20051;-40
2024/04/07 02:05:48;;;;;;;2.03;0.98;;;19.70;81.80;;;;;;4175211;28;20499;-41
2024/04/07 02:08:27;;;;;;;1.75;1.10;;;19.70;81.90;;;;;;4186720;28;20414;-40
2024/04/07 02:11:08;;;;;;;1.20;0.90;;;19.70;82.10;;;;;;4195566;28;20050;-40
2024/04/07 02:13:48;;;;;;;4.70;1.27;;;19.70;82.00;;;;;;4192333;28;20083;-40
2024/04/07 02:16:29;;;;;;;5.97;1.20;;;19.70;81.90;;;;;;4203078;28;20055;-40
2024/04/07 02:19:08;;;;;;;2.95;1.40;;;19.70;81.60;;;;;;4191896;28;20066;-41
2024/04/07 02:21:48;;;;;;;2.35;1.17;;;19.70;81.40;;;;;;4188513;28;20086;-40
2024/04/07 02:24:27;;;;;;;5.93;1.10;;;19.70;81.90;;;;;;4186521;28;20585;-40
2024/04/07 02:27:09;;;;;;;4.63;1.05;;;19.70;81.90;;;;;;4186972;28;20105;-40
2024/04/07 02:29:49;;;;;;;2.50;1.08;;;19.70;81.90;;;;;;4186603;28;20514;-41
2024/04/07 02:32:30;;;;;;;2.38;1.30;;;19.70;82.00;;;;;;4188007;28;20093;-40
2024/04/07 02:35:09;;;;;;;4.28;1.30;;;19.60;82.20;;;;;;4186720;28;20453;-40
2024/04/07 02:37:49;;;;;;;3.20;0.90;;;19.60;82.40;;;;;;4186890;28;20852;-40
2024/04/07 02:40:28;;;;;;;1.55;0.80;;;19.60;82.30;;;;;;4189722;28;20097;-40
2024/04/07 02:43:08;;;;;;;1.38;0.70;;;19.60;81.90;;;;;;4176486;28;20506;-41
2024/04/07 02:48:47;;;;;;;1.05;0.98;;;19.60;82.10;;;;;;4185013;28;20124;-41
2024/04/07 02:51:27;;;;;;;2.40;0.90;;;19.60;82.10;;;;;;4196671;28;20507;-40
2024/04/07 02:54:06;;;;;;;2.75;0.80;;;19.60;82.20;;;;;;4203108;28;20065;-40
2024/04/07 02:56:45;;;;;;;2.47;0.90;;;19.60;82.10;;;;;;4203341;28;20131;-40
2024/04/07 02:59:26;;;;;;;2.35;1.23;;;19.60;82.20;;;;;;4186405;28;20395;-40
2024/04/07 03:02:06;;;;;;;1.13;0.65;;;19.60;82.20;;;;;;4188213;28;20101;-40
2024/04/07 03:04:48;;;;;;;2.35;1.15;;;19.60;82.30;;;;;;4203258;28;20410;-41
2024/04/07 03:07:27;;;;;;;2.13;0.90;;;19.60;82.50;;;;;;4203247;28;20054;-41
2024/04/07 03:10:07;;;;;;;5.05;1.20;;;19.60;82.40;;;;;;4189384;28;20556;-40
2024/04/07 03:12:46;;;;;;;1.95;0.90;;;19.60;82.10;;;;;;4188729;28;20051;-40
2024/04/07 03:15:26;;;;;;;3.63;0.93;;;19.50;81.70;;;;;;4189659;28;20048;-40
2024/04/07 03:18:07;;;;;;;6.05;1.40;;;19.50;82.10;;;;;;4189638;28;20101;-41
2024/04/07 03:20:47;;;;;;;2.92;0.70;;;19.50;82.30;;;;;;4193700;28;20051;-40
2024/04/07 03:23:26;;;;;;;2.53;0.50;;;19.50;82.40;;;;;;4206011;28;20423;-40
2024/04/07 03:26:06;;;;;;;2.15;0.60;;;19.50;82.30;;;;;;4206013;28;20403;-40
2024/04/07 03:28:47;;;;;;;0.65;0.60;;;19.50;83.20;;;;;;4200560;28;20143;-40
2024/04/07 03:31:28;;;;;;;2.97;0.90;;;19.50;82.30;;;;;;4200413;28;20094;-41
2024/04/07 03:34:08;;;;;;;0.52;0.52;;;19.50;82.30;;;;;;4206610;28;20414;-40
2024/04/07 03:36:48;;;;;;;1.93;0.50;;;19.50;81.80;;;;;;4206315;28;20074;-40
2024/04/07 03:39:29;;;;;;;1.10;0.60;;;19.50;81.40;;;;;;4199067;28;20290;-40
2024/04/07 03:42:09;;;;;;;1.02;0.50;;;19.50;81.50;;;;;;4204754;28;20055;-41
2024/04/07 03:44:49;;;;;;;0.98;0.60;;;19.50;81.70;;;;;;4205160;28;20067;-40
2024/04/07 03:47:29;;;;;;;0.93;0.40;;;19.40;82.50;;;;;;4192521;28;20043;-41
2024/04/07 03:50:10;;;;;;;1.00;0.60;;;19.40;83.50;;;;;;4189071;28;20102;-40
2024/04/07 03:52:50;;;;;;;1.00;0.63;;;19.40;83.80;;;;;;4189302;28;20137;-40
2024/04/07 03:55:29;;;;;;;1.88;0.55;;;19.40;83.90;;;;;;4188816;28;20110;-40
2024/04/07 03:58:09;;;;;;;1.63;0.60;;;19.40;84.00;;;;;;4188883;28;20136;-41
2024/04/07 04:00:48;;;;;;;0.95;0.70;;;19.40;84.00;;;;;;4189114;28;20062;-41
2024/04/07 04:03:28;;;;;;;1.25;0.70;;;19.40;83.80;;;;;;4198063;28;20475;-40
2024/04/07 04:06:09;;;;;;;2.17;0.77;;;19.40;83.70;;;;;;4194141;28;20054;-40
2024/04/07 04:08:50;;;;;;;2.15;0.50;;;19.40;83.60;;;;;;4204544;28;20556;-41
2024/04/07 04:11:29;;;;;;;1.58;0.70;;;19.40;83.50;;;;;;4192595;28;20105;-40
2024/04/07 04:14:09;;;;;;;0.77;0.50;;;19.40;83.50;;;;;;4204462;28;20047;-41
2024/04/07 04:16:48;;;;;;;2.13;0.60;;;19.40;83.30;;;;;;4204599;28;20062;-40
2024/04/07 04:19:28;;;;;;;1.98;0.60;;;19.40;83.10;;;;;;4197489;28;20051;-41
2024/04/07 04:22:08;;;;;;;2.42;0.40;;;19.40;83.10;;;;;;4187506;28;20055;-41
2024/04/07 04:24:49;;;;;;;2.22;0.65;;;19.40;83.00;;;;;;4187071;28;20094;-41
2024/04/07 04:27:29;;;;;;;2.40;0.60;;;19.40;83.00;;;;;;4187569;28;20054;-43
2024/04/07 04:30:10;;;;;;;2.10;1.23;;;19.30;82.80;;;;;;4199621;28;20132;-43
2024/04/07 04:32:49;;;;;;;1.40;1.00;;;19.30;82.60;;;;;;4204193;28;20062;-42
2024/04/07 04:35:29;;;;;;;3.35;1.00;;;19.30;82.50;;;;;;4190658;28;20055;-44
2024/04/07 04:38:10;;;;;;;1.95;0.77;;;19.30;82.50;;;;;;4192776;28;20051;-42
2024/04/07 04:40:54;;;;;;;3.13;0.83;;;19.30;82.50;;;;;;4187284;28;20056;-42
2024/04/07 04:43:34;;;;;;;1.83;0.80;;;19.30;82.30;;;;;;4187778;28;20290;-42
2024/04/07 04:46:14;;;;;;;3.00;0.90;;;19.30;82.30;;;;;;4187606;28;20048;-42
2024/04/07 04:48:53;;;;;;;1.85;1.00;;;19.30;82.20;;;;;;4190016;28;20185;-43
2024/04/07 04:51:33;;;;;;;2.60;0.80;;;19.30;82.40;;;;;;4204492;28;20051;-43
2024/04/07 04:54:14;;;;;;;2.80;0.95;;;19.30;82.50;;;;;;4204252;28;20047;-43
2024/04/07 04:56:54;;;;;;;2.00;0.75;;;19.30;82.50;;;;;;4187544;28;20161;-42
2024/04/07 04:59:33;;;;;;;0.60;0.60;;;19.20;82.60;;;;;;4197180;28;20094;-42
2024/04/07 05:02:13;;;;;;;3.40;0.93;;;19.20;82.60;;;;;;4204311;28;20136;-43
2024/04/07 05:04:52;;;;;;;1.58;0.70;;;19.20;82.60;;;;;;4204439;27;20208;-42
2024/04/07 05:07:32;;;;;;;1.88;1.00;;;19.20;82.60;;;;;;4204131;28;20051;-44
2024/04/07 05:10:13;;;;;;;1.17;0.80;;;19.20;82.60;;;;;;4164515;28;1081722;-42
2024/04/07 05:12:53;;;;;;;2.20;0.70;;;19.20;82.70;;;;;;4204491;28;20055;-43
2024/04/07 05:15:33;;;;;;;1.00;0.70;;;19.20;82.80;;;;;;4198846;28;20394;-42
2024/04/07 05:18:13;;;;;;;1.17;0.65;;;19.20;82.90;;;;;;4187847;28;20105;-43
2024/04/07 05:20:52;;;;;;;2.00;0.60;;;19.20;82.80;;;;;;4204484;28;20078;-43
2024/04/07 05:23:31;;;;;;;1.85;0.98;;;19.10;82.70;;;;;;4204525;28;20383;-48
2024/04/07 05:26:13;;;;;;;3.15;0.73;;;19.10;82.70;;;;;;4191319;28;20108;-47
2024/04/07 05:28:53;;;;;;;0.82;0.70;;;19.10;83.10;;;;;;4203819;28;20121;-49
2024/04/07 05:31:32;;;;;;;2.45;0.73;;;19.20;83.50;;;;;;4204433;28;20415;-47
2024/04/07 05:34:12;;;;;;;1.17;0.68;;;19.20;83.30;;;;;;4204025;28;20615;-48
2024/04/07 05:36:51;;;;;;;2.72;0.70;;;19.10;83.00;;;;;;4192345;28;20439;-47
2024/04/07 05:39:31;;;;;;;0.65;0.50;;;19.20;82.80;;;;;;4192443;28;20129;-50
2024/04/07 05:42:11;;;;;;;1.92;0.60;;;19.10;82.50;;;;;;4187455;28;20094;-48
2024/04/07 05:44:51;;;;;;;1.90;0.60;;;19.10;82.40;;;;;;4198483;28;20054;-49
2024/04/07 05:47:30;;;;;;;1.38;0.60;;;19.10;82.20;;;;;;4203942;28;20097;-49
2024/04/07 05:50:10;;;;;;;0.52;0.40;;;19.10;82.00;;;;;;4204136;28;20055;-48
2024/04/07 05:52:51;;;;;;;1.13;0.65;;;19.10;81.60;;;;;;4203658;28;20071;-47
2024/04/07 05:55:34;;;;;;;1.95;0.60;;;19.00;81.40;;;;;;4191402;28;20047;-43
2024/04/07 05:58:15;;;;;;;1.83;0.50;;;19.00;81.20;;;;;;4187134;28;20486;-45
2024/04/07 06:00:55;;;;;;;1.10;0.52;;;19.00;80.80;;;;;;4186651;28;20491;-44
2024/04/07 06:03:34;;;;;;;1.65;1.00;;;19.00;80.60;;;;;;4185906;28;20059;-43
2024/04/07 06:06:14;;;;;;;1.65;0.82;;;19.00;80.70;;;;;;4187096;28;20479;-42
2024/04/07 06:08:53;;;;;;;1.42;0.60;;;19.00;80.80;;;;;;4197073;28;20531;-44
2024/04/07 06:11:33;;;;;;;1.52;0.50;;;19.00;80.90;;;;;;4187153;28;20152;-45
2024/04/07 06:14:15;;;;;;;2.05;0.38;;;19.00;81.20;;;;;;4190975;28;20131;-43
2024/04/07 06:16:53;;;;;;;;;;;19.00;81.40;;;;;;4204667;28;20058;-43
2024/04/07 06:19:34;;;;;;;1.33;0.40;;;19.00;80.90;;;;;;4204115;28;19984;-43
2024/04/07 06:22:13;;;;;;;0.82;0.50;;;19.00;80.90;;;;;;4203424;28;20046;-43
2024/04/07 06:24:53;;;;;;;1.33;0.40;;;19.00;80.50;;;;;;4195050;28;20458;-43
2024/04/07 06:27:32;;;;;;;0.40;0.38;;;19.00;80.40;;;;;;4196739;28;20374;-42
2024/04/07 06:30:14;;;;;;;2.75;1.13;;;18.90;79.70;;;;;;4203943;28;20130;-42
2024/04/07 06:32:53;;;;;;;1.35;0.70;;;18.90;79.30;;;;;;4203503;28;20047;-42
2024/04/07 06:35:33;;;;;;;0.55;0.55;;;18.90;78.90;;;;;;4189032;28;20079;-42
2024/04/07 06:38:12;;;;;;;2.15;0.68;;;18.90;79.20;;;;;;4186606;28;20060;-42
2024/04/07 06:40:52;;;;;;;2.05;0.65;;;18.90;77.30;;;;;;4187305;28;20437;-41
2024/04/07 06:43:34;;;;;;;4.43;0.70;;;18.90;77.50;;;;;;4198605;27;20054;-42
2024/04/07 06:46:15;;;;;;;;;;;18.80;76.90;;;;;;4174050;28;20047;-41
2024/04/07 06:48:55;;;;;;;0.88;0.40;;;18.80;77.10;;;;;;4186871;28;19931;-41
2024/04/07 06:51:34;;;;;;;1.52;0.50;;;18.80;77.00;;;;;;4186973;28;20097;-41
2024/04/07 06:54:13;;;;;;;1.73;0.60;;;18.80;76.50;;;;;;4191621;28;20054;-50
2024/04/07 06:56:54;;;;;;;1.08;0.57;;;18.80;76.20;;;;;;4186127;28;20186;-51
2024/04/07 06:59:33;;;;;;;2.15;0.50;;;18.80;75.90;;;;;;4170089;28;20502;-46
2024/04/07 07:02:15;;;;;;;1.88;0.40;;;18.80;76.50;;;;;;4185157;28;20113;-48
2024/04/07 07:04:55;;;;;;;0.98;0.45;;;18.80;75.30;;;;;;4200741;27;20177;-48
2024/04/07 07:07:34;;;;;;;2.80;0.52;;;18.80;75.30;;;;;;4203099;27;20074;-47
2024/04/07 07:10:14;;;;;;;0.88;0.60;;;18.80;75.30;;;;;;4203139;27;20051;-47
2024/04/07 07:12:53;;;;;;;1.85;0.40;;;18.80;75.30;;;;;;4170223;28;20056;-52
2024/04/07 07:15:33;;;;;;;1.63;0.95;;;18.80;75.20;;;;;;4187028;28;20050;-49
2024/04/07 07:18:13;;;;;;;3.17;0.80;;;18.80;75.10;;;;;;4186333;28;20098;-46
2024/04/07 07:20:53;;;;;;;1.73;0.70;;;18.80;75.20;;;;;;4186100;28;20071;-46
2024/04/07 07:23:33;;;;;;;1.25;0.55;;;18.80;75.20;;;;;;4186364;28;20111;-48
2024/04/07 07:26:13;;;;;;;0.65;0.50;;;18.80;75.40;;;;;;4188067;28;20506;-41
2024/04/07 07:28:52;;;;;;;0.60;0.60;;;18.90;75.80;;;;;;4196944;28;20067;-41
2024/04/07 07:31:32;;;;;;;0.65;0.65;;;18.90;76.10;;;;;;4196455;28;20138;-41
2024/04/07 07:34:12;;;;;;;1.17;0.40;;;19.00;76.20;;;;;;4193952;28;20536;-41
2024/04/07 07:36:53;;;;;;;0.63;0.50;;;19.00;75.70;;;;;;4186735;28;20215;-41
2024/04/07 07:39:32;;;;;;;1.17;0.43;;;19.00;75.60;;;;;;4189964;28;20407;-41
2024/04/07 07:42:13;;;;;;;0.60;0.60;;;19.00;75.80;;;;;;4195863;28;20702;-42
2024/04/07 07:44:52;;;;;;;3.08;1.00;;;19.10;75.00;;;;;;4195478;28;20067;-41
2024/04/07 07:47:33;;;;;;;0.45;0.40;;;19.10;74.80;;;;;;4202730;28;20058;-41
2024/04/07 07:50:13;;;;;;;2.50;0.40;;;19.10;74.60;;;;;;4186132;28;20051;-41
2024/04/07 07:52:54;;;;;;;1.30;0.70;;;19.10;74.50;;;;;;4201032;28;20063;-41
2024/04/07 07:55:33;;;;;;;1.23;0.50;;;19.10;74.40;;;;;;4195527;28;20046;-41
2024/04/07 07:58:13;;;;;;;1.02;0.50;;;19.20;74.30;;;;;;4196564;28;20047;-41
2024/04/07 08:00:52;;;;;;;0.38;0.38;;;19.20;74.10;;;;;;4202786;28;20446;-41
2024/04/07 08:03:32;;;;;;;1.25;0.70;;;19.20;73.90;;;;;;4193200;28;20539;-41
2024/04/07 08:06:12;;;;;;;0.47;0.40;;;19.20;73.10;;;;;;4189110;28;20101;-41
2024/04/07 08:08:52;;;;;;;1.20;0.50;;;19.20;72.90;;;;;;4188920;28;20128;-41
2024/04/07 08:11:31;;;;;;;4.05;0.90;;;19.20;72.60;;;;;;4176376;28;20082;-41
2024/04/07 08:14:12;;;;;;;1.05;0.80;;;19.20;72.30;;;;;;4178239;28;20047;-41
2024/04/07 08:16:52;;;;;;;0.85;0.70;;;19.20;72.30;;;;;;4191985;28;20067;-41
2024/04/07 08:19:32;;;;;;;2.08;0.98;;;19.20;72.30;;;;;;4204129;28;20577;-41
2024/04/07 08:22:13;;;;;;;1.52;0.90;;;19.20;72.10;;;;;;4205747;28;20055;-41
2024/04/07 08:24:54;;;;;;;2.10;0.50;;;19.30;72.20;;;;;;4195678;28;20047;-41
2024/04/07 08:27:34;;;;;;;2.20;0.90;;;19.30;71.90;;;;;;4188837;28;20495;-41
2024/04/07 08:30:14;;;;;;;0.77;0.70;;;19.30;71.70;;;;;;4188626;28;20374;-41
2024/04/07 08:32:53;;;;;;;1.60;0.85;;;19.30;72.80;;;;;;4188576;28;20079;-41
2024/04/07 08:35:33;;;;;;;3.28;0.82;;;19.30;71.70;;;;;;4190845;28;20266;-43
2024/04/07 08:38:13;;;;;;;0.47;0.47;;;19.30;71.80;;;;;;4197223;28;20411;-41
2024/04/07 08:40:53;;;;;;;1.23;0.65;;;19.30;71.60;;;;;;4196730;28;20407;-41
2024/04/07 08:43:34;;;;;;;1.35;0.90;;;19.40;71.30;;;;;;4196990;28;20051;-43
2024/04/07 08:46:14;;;;;;;2.53;1.00;;;19.40;71.30;;;;;;4197717;28;20097;-42
2024/04/07 08:48:56;;;;;;;5.20;1.00;;;19.40;71.10;;;;;;4192360;28;20521;-42
2024/04/07 08:51:36;;;;;;;1.42;1.08;;;19.40;72.10;;;;;;4195305;28;20055;-42
2024/04/07 08:54:18;;;;;;;1.85;0.90;;;19.40;71.20;;;;;;4198213;28;20152;-42
2024/04/07 08:56:58;;;;;;;;;;;19.40;71.20;;;;;;4196297;28;20055;-42
2024/04/07 08:59:40;;;;;;;1.15;1.00;;;19.40;71.10;;;;;;4196047;28;20019;-42
2024/04/07 09:02:20;;;;;;;6.95;1.75;;;19.40;71.10;;;;;;4183340;28;20072;-42
2024/04/07 09:05:00;;;;;;;3.03;0.73;;;19.50;71.00;;;;;;4197328;28;20407;-42
2024/04/07 09:07:39;;;;;;;2.10;0.60;;;19.50;70.80;;;;;;4196308;28;20051;-42
2024/04/07 09:10:20;;;;;;;4.70;1.00;;;19.50;70.70;;;;;;4197401;28;20054;-42
2024/04/07 09:13:00;;;;;;;0.35;0.35;;;19.50;71.50;;;;;;4195908;28;20051;-43
2024/04/07 09:15:40;;;;;;;3.60;0.80;;;19.60;70.60;;;;;;4196115;28;20105;-42
2024/04/07 09:18:20;;;;;;;1.65;0.68;;;19.50;70.40;;;;;;4186646;28;20133;-42
2024/04/07 09:21:00;;;;;;;1.70;0.63;;;19.60;70.20;;;;;;4179416;28;20803;-42
2024/04/07 09:23:39;;;;;;;2.20;0.80;;;19.60;70.40;;;;;;4179001;28;20102;-43
2024/04/07 09:26:20;;;;;;;1.73;0.57;;;19.60;70.00;;;;;;4195918;28;20206;-42
2024/04/07 09:29:00;;;;;;;1.75;0.85;;;19.70;69.90;;;;;;4195851;28;20105;-42
2024/04/07 09:31:40;;;;;;;2.40;0.55;;;19.70;69.60;;;;;;4195713;28;20059;-42
2024/04/07 09:34:19;;;;;;;1.30;0.55;;;19.80;69.60;;;;;;4194991;28;20054;-42
2024/04/07 09:37:00;;;;;;;1.05;0.60;;;19.80;69.00;;;;;;4196095;28;20075;-42
2024/04/07 09:39:39;;;;;;;1.45;0.82;;;19.80;68.50;;;;;;4195663;28;20391;-43
2024/04/07 09:42:21;;;;;;;0.57;0.40;;;19.80;68.10;;;;;;4198214;28;20051;-42
2024/04/07 09:45:02;;;;;;;1.17;0.57;;;19.90;67.90;;;;;;4195697;28;20056;-42
2024/04/07 09:47:47;;;;;;;2.35;0.70;;;19.90;67.70;;;;;;4183226;28;20190;-42
2024/04/07 09:50:32;;;;;;;2.03;0.65;;;19.90;67.40;;;;;;4195562;28;20064;-42
2024/04/07 09:53:19;;;;;;;1.17;0.65;;;19.90;66.80;;;;;;4196194;28;20047;-42
2024/04/07 09:55:59;;;;;;;1.67;0.52;;;20.00;66.40;;;;;;4197791;28;20136;-42
2024/04/07 09:58:41;;;;;;;1.80;0.55;;;20.00;66.10;;;;;;4191060;28;20183;-42
2024/04/07 10:01:21;;;;;;;2.30;0.60;;;20.00;66.10;;;;;;4203248;28;20054;-42
2024/04/07 10:04:02;;;;;;;2.45;0.77;;;20.00;65.60;;;;;;4203658;28;20143;-42
2024/04/07 10:06:43;;;;;;;5.65;0.40;;;20.00;65.20;;;;;;4204163;28;20051;-42
2024/04/07 10:09:22;;;;;;;;;;;20.00;65.50;;;;;;4204363;28;20134;-42
2024/04/07 10:12:02;;;;;;;1.02;0.30;;;20.00;65.80;;;;;;4202599;28;19989;-42
2024/04/07 10:14:44;;;;;;;1.00;0.50;;;20.00;65.90;;;;;;4171224;28;20051;-41
2024/04/07 10:17:26;;;;;;;0.60;0.40;;;20.00;66.10;;;;;;4186929;28;20097;-42
2024/04/07 10:20:06;;;;;;;0.50;0.50;;;20.00;66.20;;;;;;4193733;27;20058;-42
2024/04/07 10:22:46;;;;;;;4.63;0.93;;;20.10;66.10;;;;;;4203634;27;20070;-42
2024/04/07 10:25:33;;;;;;;1.05;0.40;;;20.10;66.00;;;;;;4188022;28;20051;-41
2024/04/07 10:28:13;;;;;;;1.20;0.77;;;20.10;65.90;;;;;;4186779;28;20055;-42
2024/04/07 10:30:57;;;;;;;1.58;0.55;;;20.10;65.90;;;;;;4186949;28;20056;-42
2024/04/07 10:33:38;;;;;;;2.78;0.57;;;20.20;65.90;;;;;;4186441;28;20585;-41
2024/04/07 10:36:21;;;;;;;4.07;1.23;;;20.20;65.90;;;;;;4194227;28;20060;-41
2024/04/07 10:39:02;;;;;;;3.13;0.60;;;20.20;65.90;;;;;;4188397;28;20062;-42
2024/04/07 10:41:43;;;;;;;1.40;1.20;;;20.20;65.80;;;;;;4203322;28;20162;-41
2024/04/07 10:44:23;;;;;;;0.88;0.50;;;20.20;65.70;;;;;;4198706;28;20058;-42
2024/04/07 10:47:05;;;;;;;2.85;0.52;;;20.20;65.50;;;;;;4199958;28;20059;-42
2024/04/07 10:49:44;;;;;;;1.45;0.50;;;20.30;65.50;;;;;;4201335;28;20066;-42
2024/04/07 10:52:26;;;;;;;0.63;0.30;;;20.30;65.40;;;;;;4190229;28;20071;-42
2024/04/07 10:55:05;;;;;;;;;;;20.30;65.40;;;;;;4190989;28;20569;-42
2024/04/07 10:57:46;;;;;;;2.30;0.88;;;20.30;65.50;;;;;;4186575;28;20278;-42
2024/04/07 11:00:26;;;;;;;2.58;0.60;;;20.30;65.40;;;;;;4196326;28;20055;-41
2024/04/07 11:03:09;;;;;;;1.27;0.70;;;20.30;65.40;;;;;;4191199;28;20083;-42
2024/04/07 11:05:49;;;;;;;2.55;0.47;;;20.30;64.90;;;;;;4201271;28;20089;-41
2024/04/07 11:08:29;;;;;;;1.05;0.50;;;20.40;65.00;;;;;;4191614;28;20113;-41
2024/04/07 11:11:09;;;;;;;1.02;0.50;;;20.40;64.50;;;;;;4186278;28;20182;-42
2024/04/07 11:13:49;;;;;;;1.88;0.57;;;20.40;64.40;;;;;;4191157;28;20074;-42
2024/04/07 11:16:29;;;;;;;1.80;0.60;;;20.40;64.20;;;;;;4203411;28;20055;-42
2024/04/07 11:19:17;;;;;;;2.45;0.50;;;20.40;63.90;;;;;;4201693;28;20059;-42
2024/04/07 11:21:56;;;;;;;0.98;0.40;;;20.40;63.60;;;;;;4199353;28;20051;-42
2024/04/07 11:24:36;;;;;;;1.85;0.35;;;20.50;63.50;;;;;;4203153;28;20083;-42
2024/04/07 11:27:16;;;;;;;1.15;0.68;;;20.50;63.40;;;;;;4202415;28;20050;-42
2024/04/07 11:29:56;;;;;;;0.80;0.80;;;20.50;63.30;;;;;;4201902;28;20047;-42
2024/04/07 11:32:36;;;;;;;2.70;0.60;;;20.50;63.30;;;;;;4192114;28;20055;-42
2024/04/07 11:35:18;;;;;;;6.35;0.90;;;20.60;62.90;;;;;;4205596;28;20130;-41
2024/04/07 11:37:57;;;;;;;0.30;0.30;;;20.50;62.50;;;;;;4204568;27;20433;-42
2024/04/07 11:40:37;;;;;;;1.08;0.60;;;20.60;62.30;;;;;;4204324;27;20098;-42
2024/04/07 11:43:16;;;;;;;1.52;0.50;;;20.60;62.00;;;;;;4205770;28;20058;-41
2024/04/07 11:45:56;;;;;;;0.68;0.50;;;20.60;61.70;;;;;;4196967;28;20051;-42
2024/04/07 11:48:35;;;;;;;3.90;0.77;;;20.70;61.50;;;;;;4194065;28;20055;-42
2024/04/07 11:51:17;;;;;;;2.17;0.47;;;20.70;61.20;;;;;;4187167;28;20406;-42
2024/04/07 11:53:56;;;;;;;1.65;0.50;;;20.70;61.70;;;;;;4189191;28;20085;-42
2024/04/07 11:56:38;;;;;;;1.70;0.88;;;20.70;60.70;;;;;;4191374;28;20110;-42
2024/04/07 11:59:17;;;;;;;1.85;0.68;;;20.70;60.60;;;;;;4199833;28;20171;-42
2024/04/07 12:01:56;;;;;;;1.38;0.52;;;20.70;60.30;;;;;;4188952;28;20051;-42
2024/04/07 12:04:35;;;;;;;1.40;0.55;;;20.70;60.20;;;;;;4205478;28;20109;-41
2024/04/07 12:07:17;;;;;;;2.08;0.68;;;20.70;59.90;;;;;;4205336;28;20127;-42
2024/04/07 12:09:56;;;;;;;0.88;0.77;;;20.80;59.80;;;;;;4204042;28;20054;-41
2024/04/07 12:12:36;;;;;;;4.63;0.68;;;20.70;59.40;;;;;;4205620;27;20105;-41
2024/04/07 12:15:15;;;;;;;1.73;0.90;;;20.80;59.20;;;;;;4204626;27;20059;-43
2024/04/07 12:17:55;;;;;;;3.67;0.95;;;20.80;59.10;;;;;;4188821;27;20131;-42
2024/04/07 12:20:34;;;;;;;1.42;0.70;;;20.80;58.90;;;;;;4195261;28;20058;-42
2024/04/07 12:23:15;;;;;;;1.48;1.08;;;20.80;58.90;;;;;;4205005;28;20051;-42
2024/04/07 12:25:55;;;;;;;2.00;0.85;;;20.80;58.90;;;;;;4188838;28;20095;-42
2024/04/07 12:28:35;;;;;;;0.68;0.60;;;20.80;58.70;;;;;;4186812;28;20047;-42
2024/04/07 12:31:14;;;;;;;0.85;0.70;;;20.80;58.30;;;;;;4188126;28;20494;-41
2024/04/07 12:33:54;;;;;;;1.10;0.47;;;20.90;58.00;;;;;;4189560;28;20742;-42
2024/04/07 12:36:33;;;;;;;2.13;0.88;;;20.90;57.90;;;;;;4189637;28;20052;-42
2024/04/07 12:39:15;;;;;;;1.30;0.90;;;20.90;57.90;;;;;;4200399;28;20131;-41
2024/04/07 12:41:54;;;;;;;3.83;0.88;;;20.90;57.60;;;;;;4201225;28;20118;-41
2024/04/07 12:44:35;;;;;;;1.90;0.70;;;20.90;57.60;;;;;;4203877;28;20375;-42
2024/04/07 12:47:20;;;;;;;3.03;0.95;;;21.00;57.70;;;;;;4204548;28;20050;-42
2024/04/07 12:50:01;;;;;;;1.23;0.55;;;21.00;57.60;;;;;;4192482;28;20411;-42
2024/04/07 12:52:41;;;;;;;0.85;0.50;;;21.00;57.70;;;;;;4192822;28;20173;-42
2024/04/07 12:55:22;;;;;;;1.50;0.63;;;21.00;57.50;;;;;;4200972;27;20409;-42
2024/04/07 12:58:02;;;;;;;2.00;0.55;;;21.00;57.40;;;;;;4201582;28;20129;-42
2024/04/07 13:00:42;;;;;;;0.50;0.50;;;21.10;57.30;;;;;;4186909;28;20055;-42
2024/04/07 13:03:23;;;;;;;0.82;0.43;;;21.10;57.30;;;;;;4173979;28;20503;-41
2024/04/07 13:06:03;;;;;;;3.00;0.82;;;21.10;57.30;;;;;;4175324;28;20056;-42
2024/04/07 13:08:42;;;;;;;0.68;0.47;;;21.10;57.40;;;;;;4188201;28;20052;-42
2024/04/07 13:11:24;;;;;;;3.20;0.70;;;21.10;57.30;;;;;;4176918;28;20101;-41
2024/04/07 13:14:03;;;;;;;0.90;0.40;;;21.20;57.10;;;;;;4187544;28;20090;-42
2024/04/07 13:16:44;;;;;;;2.10;0.63;;;21.20;56.90;;;;;;4187704;28;20105;-48
2024/04/07 13:19:23;;;;;;;0.95;0.52;;;21.20;56.80;;;;;;4187799;28;20051;-48
2024/04/07 13:22:03;;;;;;;0.85;0.60;;;21.20;56.60;;;;;;4187436;28;20051;-51
2024/04/07 13:24:42;;;;;;;0.63;0.40;;;21.20;56.30;;;;;;4187716;28;20126;-49
2024/04/07 13:27:24;;;;;;;1.00;0.50;;;21.20;56.30;;;;;;4202239;27;20054;-49
2024/04/07 13:30:04;;;;;;;1.63;0.43;;;21.20;56.50;;;;;;4189636;28;20414;-51
2024/04/07 13:32:45;;;;;;;1.73;0.80;;;21.20;56.30;;;;;;4178675;28;20056;-49
2024/04/07 13:35:24;;;;;;;0.98;0.60;;;21.20;56.10;;;;;;4201067;28;20051;-49
2024/04/07 13:38:04;;;;;;;2.15;0.63;;;21.20;56.00;;;;;;4202214;28;20081;-48
2024/04/07 13:40:43;;;;;;;1.15;0.43;;;21.30;56.00;;;;;;4203359;28;20055;-48
2024/04/07 13:43:25;;;;;;;1.67;0.35;;;21.30;56.00;;;;;;4202163;28;20147;-50
2024/04/07 13:46:04;;;;;;;3.30;0.45;;;21.30;55.90;;;;;;4194305;28;20136;-48
2024/04/07 13:48:44;;;;;;;0.50;0.50;;;21.30;55.90;;;;;;4197888;28;20402;-48
2024/04/07 13:51:23;;;;;;;1.27;0.60;;;21.30;56.60;;;;;;4203115;28;20508;-49
2024/04/07 13:54:04;;;;;;;0.80;0.43;;;21.30;55.80;;;;;;4203580;28;20152;-47
2024/04/07 13:56:43;;;;;;;0.57;0.50;;;21.30;55.60;;;;;;4187917;28;20075;-49